Weather at Wissler's Airport

Public forecast

Using degrees Fahrenheit for public forecast. Weather courtesy of forecast.io.

Closest aviation weather report (METAR) to Wissler's Airport

Closest report is Olympia Regional Airport, 7.8 nm (14.4 km) N.

2024/07/21 21:54 (retrieved 33 minutes ago)

KOLM 212154Z 19004KT 10SM CLR 24/16 A3009 RMK AO2 SLP186 T02440156

Closest aviation forecast (TAF) to Wissler's Airport

Closest forecast is Olympia Regional Airport, 7.8 nm (14.4 km) N.

2024/07/21 18:27 (retrieved 4 hours ago)

TAF KOLM 211725Z 2118/2218 33004KT P6SM FEW013 BKN150 FM211900 03004KT P6SM BKN150 FM220600 20005KT P6SM FEW150 FM221100 20004KT P6SM OVC012